createdAt,value
2023-05-22T00:01:02.186Z,20.50
2023-05-22T00:03:08.427Z,19.37
2023-05-22T00:05:20.863Z,18.33
2023-05-22T00:07:29.314Z,20.00
2023-05-22T00:09:34.412Z,19.80
2023-05-22T00:11:47.004Z,20.13
2023-05-22T00:13:50.037Z,20.10
2023-05-22T00:15:54.538Z,19.77
2023-05-22T00:17:59.016Z,18.57
2023-05-22T00:20:06.920Z,19.70
2023-05-22T00:22:11.157Z,18.60
2023-05-22T00:24:19.411Z,18.97
2023-05-22T00:26:25.198Z,19.10
2023-05-22T00:28:29.151Z,18.83
2023-05-22T00:30:33.322Z,20.40
2023-05-22T00:32:39.817Z,18.93
2023-05-22T00:34:50.357Z,19.57
2023-05-22T00:36:53.269Z,19.77
2023-05-22T00:38:56.467Z,19.17
2023-05-22T00:41:06.446Z,20.07
2023-05-22T00:43:12.145Z,19.80
2023-05-22T00:45:18.982Z,19.03
2023-05-22T00:47:36.623Z,18.77
2023-05-22T00:49:44.969Z,19.37
2023-05-22T00:51:48.323Z,18.57
2023-05-22T00:53:55.808Z,20.07
2023-05-22T00:56:00.198Z,19.60
2023-05-22T00:58:08.476Z,18.10
2023-05-22T01:00:15.438Z,18.47
2023-05-22T01:02:21.315Z,18.37
2023-05-22T01:04:24.382Z,18.70
2023-05-22T01:06:27.273Z,18.10
2023-05-22T01:08:30.528Z,18.93
2023-05-22T01:10:34.028Z,18.53
2023-05-22T01:12:46.142Z,19.23
2023-05-22T01:15:02.763Z,19.33
2023-05-22T01:17:14.057Z,18.00
2023-05-22T01:19:32.940Z,20.10
2023-05-22T01:21:46.057Z,19.53
2023-05-22T01:24:21.988Z,20.63
2023-05-22T01:26:54.070Z,20.50
2023-05-22T01:29:16.289Z,19.37
2023-05-22T01:31:25.853Z,19.20
2023-05-22T01:33:32.950Z,17.83
2023-05-22T01:35:37.035Z,18.20
2023-05-22T01:37:41.125Z,18.00
2023-05-22T01:39:46.423Z,18.47
2023-05-22T01:41:49.657Z,17.87
2023-05-22T01:43:53.415Z,18.00
2023-05-22T01:46:01.559Z,18.40
2023-05-22T01:48:06.501Z,19.40
2023-05-22T01:50:10.377Z,18.43
2023-05-22T01:52:22.282Z,19.50
2023-05-22T01:54:33.643Z,18.23
2023-05-22T01:56:44.621Z,19.40
2023-05-22T01:58:53.842Z,18.43
2023-05-22T02:01:00.971Z,19.90
2023-05-22T02:03:19.572Z,20.67
2023-05-22T02:05:27.606Z,20.43
2023-05-22T02:07:33.226Z,20.73
2023-05-22T02:09:37.690Z,20.27
2023-05-22T02:11:42.533Z,20.60
2023-05-22T02:13:45.844Z,22.33
2023-05-22T02:15:49.166Z,22.23
2023-05-22T02:17:53.258Z,22.20
2023-05-22T02:20:00.855Z,22.23
2023-05-22T02:22:06.172Z,22.73
2023-05-22T02:24:14.173Z,23.53
2023-05-22T02:26:17.293Z,21.67
2023-05-22T02:28:20.724Z,23.27
2023-05-22T02:30:24.002Z,21.90
2023-05-22T02:32:29.647Z,21.50
2023-05-22T02:34:33.005Z,22.10
2023-05-22T02:36:38.104Z,21.70
2023-05-22T02:38:41.566Z,21.80
2023-05-22T02:40:44.530Z,22.77
2023-05-22T02:42:48.377Z,22.20
2023-05-22T02:44:52.177Z,21.73
2023-05-22T02:46:55.825Z,22.03
2023-05-22T02:48:58.934Z,23.60
2023-05-22T02:51:02.000Z,23.83
2023-05-22T02:53:10.404Z,24.53
2023-05-22T02:55:13.419Z,23.47
2023-05-22T02:57:16.370Z,22.60
2023-05-22T02:59:21.741Z,22.33
2023-05-22T03:01:26.361Z,22.93
2023-05-22T03:03:31.405Z,23.40
2023-05-22T03:05:34.733Z,22.87
2023-05-22T03:07:37.746Z,22.83
2023-05-22T03:09:42.063Z,24.00
2023-05-22T03:11:44.995Z,23.60
2023-05-22T03:13:48.558Z,22.37
2023-05-22T03:15:55.780Z,23.73
2023-05-22T03:17:59.264Z,22.50
2023-05-22T03:20:02.389Z,25.97
2023-05-22T03:22:06.512Z,23.40
2023-05-22T03:24:11.102Z,23.03
2023-05-22T03:26:19.025Z,23.73
2023-05-22T03:28:21.990Z,25.97
2023-05-22T03:30:25.276Z,24.37
2023-05-22T03:32:43.324Z,23.70
2023-05-22T03:34:46.549Z,22.80
2023-05-22T03:36:49.530Z,24.10
2023-05-22T03:38:55.956Z,22.73
2023-05-22T03:41:01.131Z,21.30
2023-05-22T03:43:08.575Z,21.37
2023-05-22T03:45:12.532Z,21.77
2023-05-22T03:47:15.518Z,22.80
2023-05-22T03:49:18.471Z,23.40
2023-05-22T03:51:21.835Z,22.07
2023-05-22T03:53:28.938Z,21.67
2023-05-22T03:55:31.807Z,21.33
2023-05-22T03:57:35.506Z,20.97
2023-05-22T03:59:40.046Z,22.00
2023-05-22T04:01:43.820Z,23.70
2023-05-22T04:03:47.413Z,22.83
2023-05-22T04:05:52.493Z,23.37
2023-05-22T04:07:57.373Z,24.20
2023-05-22T04:10:00.381Z,23.20
2023-05-22T04:12:03.544Z,24.43
2023-05-22T04:14:06.896Z,23.30
2023-05-22T04:16:11.379Z,25.17
2023-05-22T04:18:16.166Z,24.50
2023-05-22T04:20:19.125Z,23.07
2023-05-22T04:22:22.702Z,24.13
2023-05-22T04:24:25.789Z,25.30
2023-05-22T04:26:33.145Z,25.90
2023-05-22T04:28:36.363Z,24.23
2023-05-22T04:30:40.416Z,23.63
2023-05-22T04:32:45.417Z,25.33
2023-05-22T04:34:50.232Z,25.90
2023-05-22T04:36:53.215Z,26.10
2023-05-22T04:38:56.612Z,25.83
2023-05-22T04:41:00.317Z,28.40
2023-05-22T04:43:06.199Z,26.10
2023-05-22T04:45:09.980Z,25.77
2023-05-22T04:47:14.418Z,26.97
2023-05-22T04:49:19.097Z,26.50
2023-05-22T04:51:22.930Z,26.10
2023-05-22T04:53:27.449Z,25.50
2023-05-22T04:55:33.743Z,25.73
2023-05-22T04:57:36.689Z,27.23
2023-05-22T04:59:39.956Z,24.47
2023-05-22T05:01:46.342Z,24.67
2023-05-22T05:03:49.353Z,25.10
2023-05-22T05:05:53.696Z,26.03
2023-05-22T05:07:59.269Z,24.87
2023-05-22T05:10:02.582Z,24.60
2023-05-22T05:12:06.101Z,24.67
2023-05-22T05:14:11.277Z,24.43
2023-05-22T05:16:14.413Z,23.57
2023-05-22T05:18:19.478Z,24.57
2023-05-22T05:20:22.946Z,24.80
2023-05-22T05:22:29.480Z,24.03
2023-05-22T05:24:33.150Z,23.87
2023-05-22T05:26:36.335Z,24.20
2023-05-22T05:28:39.673Z,24.63
2023-05-22T05:30:44.104Z,24.90
2023-05-22T05:33:05.734Z,25.57
2023-05-22T05:35:19.654Z,25.47
2023-05-22T05:37:30.860Z,25.27
2023-05-22T05:39:36.158Z,24.83
2023-05-22T05:41:41.835Z,24.50
2023-05-22T05:43:48.478Z,24.53
2023-05-22T05:45:51.463Z,25.27
2023-05-22T05:47:54.554Z,25.63
2023-05-22T05:49:57.913Z,26.13
2023-05-22T05:52:05.441Z,24.77
2023-05-22T05:54:16.199Z,26.53
2023-05-22T05:56:22.609Z,25.97
2023-05-22T05:58:29.279Z,24.97
2023-05-22T06:00:58.522Z,24.83
2023-05-22T06:03:02.264Z,24.90
2023-05-22T06:05:19.294Z,24.80
2023-05-22T06:07:28.580Z,24.47
2023-05-22T06:09:33.085Z,24.40
2023-05-22T06:11:45.174Z,25.20
2023-05-22T06:13:49.477Z,24.70
2023-05-22T06:15:54.546Z,24.83
2023-05-22T06:17:57.589Z,24.40
2023-05-22T06:20:00.843Z,24.20
2023-05-22T06:22:04.887Z,23.90
2023-05-22T06:24:08.137Z,25.37
2023-05-22T06:26:16.753Z,25.20
2023-05-22T06:28:21.320Z,25.13
2023-05-22T06:30:38.846Z,23.57
2023-05-22T06:32:44.115Z,24.23
2023-05-22T06:34:49.547Z,23.97
2023-05-22T06:36:56.922Z,25.83
2023-05-22T06:39:09.408Z,23.87
2023-05-22T06:41:33.606Z,24.10
2023-05-22T06:43:37.295Z,24.43
2023-05-22T06:46:07.943Z,24.30
2023-05-22T06:48:13.960Z,24.77
2023-05-22T06:50:32.057Z,27.17
2023-05-22T06:52:35.092Z,26.13
2023-05-22T06:54:42.769Z,25.63
2023-05-22T06:56:48.252Z,26.93
2023-05-22T06:58:54.066Z,25.60
2023-05-22T07:01:01.585Z,23.07
2023-05-22T07:03:11.861Z,25.10
2023-05-22T07:05:22.107Z,25.73
2023-05-22T07:07:33.959Z,25.03
2023-05-22T07:09:37.113Z,25.50
2023-05-22T07:11:43.727Z,25.00
2023-05-22T07:13:49.377Z,24.70
2023-05-22T07:15:56.266Z,24.87
2023-05-22T07:18:02.010Z,25.03
2023-05-22T07:20:08.554Z,26.17
2023-05-22T07:22:14.477Z,24.70
2023-05-22T07:24:21.317Z,24.87
2023-05-22T07:26:27.604Z,24.43
2023-05-22T07:28:38.242Z,23.57
2023-05-22T07:30:52.161Z,23.83
2023-05-22T07:32:55.256Z,23.50
2023-05-22T07:34:58.397Z,23.93
2023-05-22T07:37:07.952Z,24.40
2023-05-22T07:39:11.362Z,24.03
2023-05-22T07:41:16.369Z,23.73
2023-05-22T07:43:19.482Z,25.20
2023-05-22T07:45:23.125Z,25.20
2023-05-22T07:47:30.041Z,23.47
2023-05-22T07:49:34.859Z,23.83
2023-05-22T07:51:40.964Z,24.47
2023-05-22T07:53:46.772Z,25.60
2023-05-22T07:55:52.707Z,25.00
2023-05-22T07:57:57.776Z,25.00
2023-05-22T08:00:15.672Z,24.60
2023-05-22T08:02:22.520Z,25.57
2023-05-22T08:04:27.550Z,23.73
2023-05-22T08:06:31.355Z,23.87
2023-05-22T08:08:34.608Z,23.53
2023-05-22T08:12:43.773Z,23.33
2023-05-22T08:14:46.730Z,24.70
2023-05-22T08:16:49.748Z,26.37
2023-05-22T08:18:55.079Z,23.87
2023-05-22T08:21:00.288Z,23.93
2023-05-22T08:23:03.292Z,25.63
2023-05-22T08:25:06.755Z,23.03
2023-05-22T08:27:09.675Z,23.93
2023-05-22T08:29:14.562Z,23.67
2023-05-22T08:31:19.757Z,24.37
2023-05-22T08:33:23.046Z,23.53
2023-05-22T08:35:27.262Z,24.53
2023-05-22T08:37:33.677Z,23.53
2023-05-22T08:39:36.632Z,23.50
2023-05-22T08:41:39.948Z,23.00
2023-05-22T08:43:43.075Z,23.17
2023-05-22T08:45:47.225Z,25.20
2023-05-22T08:47:54.837Z,25.20
2023-05-22T08:50:01.130Z,26.77
2023-05-22T08:52:09.046Z,25.17
2023-05-22T08:54:18.462Z,24.27
2023-05-22T08:56:22.140Z,23.03
2023-05-22T08:58:26.126Z,24.20
2023-05-22T09:00:29.683Z,25.30
2023-05-22T09:02:33.195Z,26.27
2023-05-22T09:04:41.412Z,26.73
2023-05-22T09:06:45.004Z,25.27
2023-05-22T09:08:51.528Z,26.30
2023-05-22T09:10:58.682Z,25.40
2023-05-22T09:13:03.733Z,24.83
2023-05-22T09:15:13.001Z,24.40
2023-05-22T09:17:20.800Z,23.93
2023-05-22T09:19:23.853Z,23.77
2023-05-22T09:21:30.645Z,24.83
2023-05-22T09:23:33.878Z,22.60
2023-05-22T09:25:39.332Z,24.27
2023-05-22T09:27:55.534Z,24.33
2023-05-22T09:29:58.739Z,24.03
2023-05-22T09:32:04.167Z,23.80
2023-05-22T09:34:08.254Z,22.50
2023-05-22T09:36:13.507Z,22.23
2023-05-22T09:38:16.864Z,22.50
2023-05-22T09:40:19.987Z,23.17
2023-05-22T09:42:25.860Z,22.07
2023-05-22T09:44:31.380Z,21.47
2023-05-22T09:46:41.683Z,20.30
2023-05-22T09:48:45.057Z,18.27
2023-05-22T09:50:49.400Z,19.17
2023-05-22T09:52:55.274Z,18.63
2023-05-22T09:55:01.257Z,18.10
2023-05-22T09:57:07.641Z,17.37
2023-05-22T09:59:12.751Z,17.30
2023-05-22T10:01:17.782Z,17.30
2023-05-22T10:03:24.378Z,17.40
2023-05-22T10:05:33.878Z,16.70
2023-05-22T10:07:38.457Z,16.03
2023-05-22T10:09:43.523Z,16.97
2023-05-22T10:11:47.256Z,16.57
2023-05-22T10:13:52.615Z,16.90
2023-05-22T10:15:55.961Z,19.17
2023-05-22T10:18:01.422Z,18.73
2023-05-22T10:20:07.953Z,18.17
2023-05-22T10:22:21.955Z,19.27
2023-05-22T10:24:27.793Z,18.70
2023-05-22T10:26:31.076Z,19.37
2023-05-22T10:28:39.426Z,19.00
2023-05-22T10:30:49.446Z,20.83
2023-05-22T10:33:19.237Z,20.50
2023-05-22T10:35:26.928Z,18.50
2023-05-22T10:37:43.497Z,19.30
2023-05-22T10:40:02.186Z,19.40
2023-05-22T10:42:05.429Z,21.00
2023-05-22T10:44:08.376Z,20.25
2023-05-22T10:46:13.940Z,21.67
2023-05-22T10:48:23.217Z,21.15
2023-05-22T10:50:26.404Z,20.08
2023-05-22T10:52:29.645Z,19.27
2023-05-22T10:54:41.680Z,18.98
2023-05-22T10:56:46.884Z,18.08
2023-05-22T10:58:57.819Z,18.35
2023-05-22T11:01:12.869Z,18.52
2023-05-22T11:03:22.065Z,19.77
2023-05-22T11:05:35.436Z,18.10
2023-05-22T11:07:41.489Z,17.40
2023-05-22T11:09:47.624Z,19.38
2023-05-22T11:12:19.455Z,18.48
2023-05-22T11:14:22.588Z,16.90
2023-05-22T11:16:25.804Z,17.75
2023-05-22T11:18:31.376Z,17.45
2023-05-22T11:20:39.965Z,16.98
2023-05-22T11:22:45.448Z,19.65
2023-05-22T11:24:52.109Z,17.17
2023-05-22T11:27:03.616Z,17.55
2023-05-22T11:29:10.555Z,17.35
2023-05-22T11:31:13.690Z,17.15
2023-05-22T11:33:20.251Z,16.58
2023-05-22T11:35:26.182Z,15.20
2023-05-22T11:37:30.438Z,15.82
2023-05-22T11:39:34.072Z,15.80
2023-05-22T11:41:36.993Z,15.25
2023-05-22T11:43:41.486Z,14.48
2023-05-22T11:45:46.447Z,14.65
2023-05-22T11:47:49.683Z,14.65
2023-05-22T11:49:54.505Z,15.27
2023-05-22T11:51:59.048Z,15.65
2023-05-22T11:54:06.139Z,15.98
2023-05-22T11:56:11.288Z,15.35
2023-05-22T11:58:14.184Z,13.70
2023-05-22T12:00:21.723Z,14.30
2023-05-22T12:02:25.867Z,13.93
2023-05-22T12:04:32.872Z,13.23
2023-05-22T12:06:38.054Z,12.48
2023-05-22T12:08:43.866Z,12.48
2023-05-22T12:10:52.086Z,13.13
2023-05-22T12:12:56.172Z,13.20
2023-05-22T12:15:01.152Z,13.15
2023-05-22T12:17:05.129Z,12.63
2023-05-22T12:19:08.866Z,13.10
2023-05-22T12:21:15.542Z,12.88
2023-05-22T12:23:27.746Z,12.82
2023-05-22T12:25:40.983Z,12.95
2023-05-22T12:27:50.553Z,14.43
2023-05-22T12:29:58.029Z,13.95
2023-05-22T12:32:04.076Z,13.40
2023-05-22T12:34:08.684Z,12.90
2023-05-22T12:36:12.089Z,13.13
2023-05-22T12:38:15.501Z,13.23
2023-05-22T12:40:20.187Z,12.65
2023-05-22T12:42:28.336Z,12.05
2023-05-22T12:44:31.273Z,12.80
2023-05-22T12:46:41.838Z,12.45
2023-05-22T12:48:44.861Z,12.18
2023-05-22T12:50:48.204Z,11.32
2023-05-22T12:52:54.107Z,10.80
2023-05-22T12:54:57.005Z,10.73
2023-05-22T12:57:00.980Z,9.65
2023-05-22T12:59:08.223Z,9.38
2023-05-22T13:01:11.239Z,10.93
2023-05-22T13:03:16.500Z,9.30
2023-05-22T13:05:21.569Z,9.02
2023-05-22T13:07:24.563Z,9.10
2023-05-22T13:09:27.849Z,8.77
2023-05-22T13:11:31.015Z,9.27
2023-05-22T13:13:34.253Z,8.60
2023-05-22T13:15:46.452Z,8.73
2023-05-22T13:17:51.468Z,8.38
2023-05-22T13:19:56.200Z,9.00
2023-05-22T13:21:59.354Z,7.50
2023-05-22T13:24:02.450Z,7.63
2023-05-22T13:26:05.409Z,6.82
2023-05-22T13:28:11.476Z,6.90
2023-05-22T13:30:14.907Z,6.00
2023-05-22T13:32:21.008Z,6.32
2023-05-22T13:34:26.612Z,5.68
2023-05-22T13:36:29.836Z,6.25
2023-05-22T13:38:34.588Z,6.47
2023-05-22T13:40:37.472Z,6.68
2023-05-22T13:42:44.309Z,6.40
2023-05-22T13:44:47.304Z,6.50
2023-05-22T13:46:55.730Z,6.53
2023-05-22T13:49:03.870Z,6.68
2023-05-22T13:51:06.994Z,6.97
2023-05-22T13:53:10.068Z,6.90
2023-05-22T13:55:12.997Z,6.97
2023-05-22T13:57:17.826Z,6.68
2023-05-22T13:59:23.514Z,6.97
2023-05-22T14:01:26.554Z,7.10
2023-05-22T14:03:29.728Z,7.70
2023-05-22T14:05:34.063Z,8.15
2023-05-22T14:07:37.132Z,8.63
2023-05-22T14:09:40.078Z,7.90
2023-05-22T14:11:43.154Z,8.43
2023-05-22T14:13:46.315Z,8.95
2023-05-22T14:15:49.478Z,8.18
2023-05-22T14:17:52.698Z,8.68
2023-05-22T14:19:55.751Z,7.90
2023-05-22T14:22:00.014Z,7.72
2023-05-22T14:24:04.497Z,8.00
2023-05-22T14:26:07.686Z,8.68
2023-05-22T14:28:10.694Z,8.10
2023-05-22T14:30:15.348Z,8.55
2023-05-22T14:32:18.321Z,7.57
2023-05-22T14:34:21.422Z,6.97
2023-05-22T14:36:24.442Z,6.93
2023-05-22T14:38:33.596Z,6.13
2023-05-22T14:40:36.552Z,6.03
2023-05-22T14:42:42.270Z,6.13
2023-05-22T14:44:47.107Z,5.90
2023-05-22T14:46:50.882Z,6.07
2023-05-22T14:48:54.105Z,6.05
2023-05-22T14:50:57.133Z,6.13
2023-05-22T14:53:00.188Z,5.88
2023-05-22T14:55:04.930Z,5.78
2023-05-22T14:57:07.921Z,5.43
2023-05-22T14:59:11.726Z,5.38
2023-05-22T15:01:17.459Z,6.03
2023-05-22T15:03:21.529Z,5.20
2023-05-22T15:05:26.448Z,6.32
2023-05-22T15:07:42.518Z,6.45
2023-05-22T15:09:47.565Z,6.68
2023-05-22T15:11:57.286Z,6.25
2023-05-22T15:14:00.275Z,6.70
2023-05-22T15:16:03.235Z,7.32
2023-05-22T15:18:06.763Z,7.28
2023-05-22T15:20:10.455Z,6.80
2023-05-22T15:22:19.241Z,6.47
2023-05-22T15:24:30.068Z,6.80
2023-05-22T15:26:35.603Z,6.82
2023-05-22T15:28:43.429Z,6.05
2023-05-22T15:30:48.354Z,6.15
2023-05-22T15:32:53.528Z,5.88
2023-05-22T15:34:56.532Z,6.55
2023-05-22T15:36:59.685Z,7.20
2023-05-22T15:39:05.600Z,7.00
2023-05-22T15:41:10.489Z,6.68
2023-05-22T15:43:13.401Z,6.47
2023-05-22T15:45:17.886Z,6.38
2023-05-22T15:47:20.857Z,6.90
2023-05-22T15:49:26.277Z,6.85
2023-05-22T15:51:32.762Z,6.88
2023-05-22T15:53:36.012Z,7.70
2023-05-22T15:55:39.553Z,7.05
2023-05-22T15:57:47.075Z,7.53
2023-05-22T15:59:50.968Z,8.25
2023-05-22T16:01:57.918Z,7.95
2023-05-22T16:04:01.147Z,8.63
2023-05-22T16:06:04.325Z,8.45
2023-05-22T16:08:09.739Z,9.52
2023-05-22T16:10:14.205Z,9.50
2023-05-22T16:12:18.869Z,10.57
2023-05-22T16:14:22.076Z,9.18
2023-05-22T16:16:25.018Z,9.85
2023-05-22T16:18:29.329Z,9.88
2023-05-22T16:20:35.825Z,10.80
2023-05-22T16:22:47.930Z,10.70
2023-05-22T16:24:52.701Z,10.20
2023-05-22T16:26:56.917Z,10.75
2023-05-22T16:28:59.911Z,9.98
2023-05-22T16:31:02.904Z,9.38
2023-05-22T16:33:05.832Z,10.45
2023-05-22T16:35:11.185Z,9.82
2023-05-22T16:37:14.115Z,9.25
2023-05-22T16:39:17.099Z,9.95
2023-05-22T16:41:20.180Z,10.45
2023-05-22T16:43:23.113Z,11.32
2023-05-22T16:45:26.816Z,10.63
2023-05-22T16:47:33.111Z,10.35
2023-05-22T16:49:36.153Z,11.57
2023-05-22T16:51:40.338Z,11.82
2023-05-22T16:53:43.291Z,12.05
2023-05-22T16:55:46.279Z,12.20
2023-05-22T16:57:54.445Z,11.07
2023-05-22T16:59:57.990Z,11.77
2023-05-22T17:02:01.241Z,12.02
2023-05-22T17:04:04.240Z,12.85
2023-05-22T17:06:08.785Z,12.38
2023-05-22T17:08:13.118Z,12.48
2023-05-22T17:10:16.355Z,11.65
2023-05-22T17:12:19.380Z,12.48
2023-05-22T17:14:22.434Z,11.80
2023-05-22T17:16:25.528Z,12.73
2023-05-22T17:18:28.531Z,12.45
2023-05-22T17:20:32.907Z,14.75
2023-05-22T17:22:38.897Z,15.68
2023-05-22T17:24:44.079Z,16.23
2023-05-22T17:26:48.850Z,15.80
2023-05-22T17:28:51.911Z,15.60
2023-05-22T17:30:55.056Z,16.38
2023-05-22T17:32:58.145Z,16.42
2023-05-22T17:35:01.706Z,17.23
2023-05-22T17:37:05.001Z,17.65
2023-05-22T17:39:14.426Z,18.10
2023-05-22T17:41:18.816Z,17.60
2023-05-22T17:43:21.733Z,18.98
2023-05-22T17:45:31.025Z,19.65
2023-05-22T17:47:34.001Z,21.10
2023-05-22T17:49:38.573Z,19.80
2023-05-22T17:51:43.561Z,20.00
2023-05-22T17:53:50.108Z,20.87
2023-05-22T17:55:53.393Z,21.52
2023-05-22T17:57:58.501Z,22.58
2023-05-22T18:00:01.527Z,21.55
2023-05-22T18:02:14.961Z,20.57
2023-05-22T18:04:17.992Z,21.77
2023-05-22T18:06:24.336Z,22.53
2023-05-22T18:08:28.493Z,23.47
2023-05-22T18:10:33.114Z,24.97
2023-05-22T18:12:37.982Z,21.87
2023-05-22T18:14:44.360Z,22.70
2023-05-22T18:16:47.264Z,22.33
2023-05-22T18:18:51.934Z,22.87
2023-05-22T18:20:56.977Z,24.20
2023-05-22T18:22:59.997Z,23.53
2023-05-22T18:25:03.400Z,24.03
2023-05-22T18:27:07.754Z,25.13
2023-05-22T18:29:10.800Z,25.57
2023-05-22T18:31:15.554Z,24.70
2023-05-22T18:33:18.555Z,26.47
2023-05-22T18:35:23.192Z,23.97
2023-05-22T18:37:27.299Z,25.13
2023-05-22T18:39:32.848Z,24.67
2023-05-22T18:41:37.375Z,25.10
2023-05-22T18:43:43.609Z,25.13
2023-05-22T18:45:46.650Z,24.63
2023-05-22T18:47:51.006Z,29.73
2023-05-22T18:49:57.178Z,25.83
2023-05-22T18:52:00.217Z,29.50
2023-05-22T18:54:04.916Z,28.23
2023-05-22T18:56:09.587Z,25.30
2023-05-22T18:58:13.714Z,29.63
2023-05-22T19:00:17.015Z,28.03
2023-05-22T19:02:21.796Z,28.07
2023-05-22T19:04:29.480Z,26.13
2023-05-22T19:06:34.707Z,29.37
2023-05-22T19:08:40.347Z,26.10
2023-05-22T19:10:43.584Z,26.13
2023-05-22T19:12:47.913Z,26.67
2023-05-22T19:14:52.500Z,27.23
2023-05-22T19:16:55.565Z,24.67
2023-05-22T19:19:00.600Z,26.37
2023-05-22T19:21:05.257Z,26.00
2023-05-22T19:23:11.287Z,27.10
2023-05-22T19:25:14.300Z,24.97
2023-05-22T19:27:17.468Z,26.07
2023-05-22T19:29:21.831Z,29.50
2023-05-22T19:31:27.531Z,25.30
2023-05-22T19:33:31.388Z,24.40
2023-05-22T19:35:34.413Z,26.30
2023-05-22T19:37:38.977Z,28.07
2023-05-22T19:39:41.927Z,26.70
2023-05-22T19:41:47.574Z,25.10
2023-05-22T19:43:50.949Z,25.47
2023-05-22T19:45:54.088Z,25.83
2023-05-22T19:48:00.213Z,27.17
2023-05-22T19:50:03.790Z,26.07
2023-05-22T19:52:07.275Z,26.43
2023-05-22T19:54:13.379Z,25.07
2023-05-22T19:56:17.454Z,26.27
2023-05-22T19:58:23.509Z,25.57
2023-05-22T20:00:28.731Z,25.60
2023-05-22T20:02:31.689Z,25.00
2023-05-22T20:04:42.993Z,24.33
2023-05-22T20:06:47.464Z,26.37
2023-05-22T20:08:50.621Z,26.53
2023-05-22T20:10:55.102Z,26.37
2023-05-22T20:12:58.096Z,25.97
2023-05-22T20:15:02.645Z,29.43
2023-05-22T20:17:05.836Z,27.03
2023-05-22T20:19:12.854Z,27.03
2023-05-22T20:21:16.011Z,25.83
2023-05-22T20:23:19.043Z,27.20
2023-05-22T20:25:22.231Z,26.77
2023-05-22T20:27:26.952Z,26.00
2023-05-22T20:29:29.898Z,29.40
2023-05-22T20:31:35.774Z,28.30
2023-05-22T20:33:38.825Z,28.10
2023-05-22T20:35:45.912Z,28.53
2023-05-22T20:37:50.495Z,30.97
2023-05-22T20:39:56.214Z,30.07
2023-05-22T20:42:02.928Z,29.10
2023-05-22T20:44:07.725Z,28.43
2023-05-22T20:46:15.074Z,29.57
2023-05-22T20:48:27.848Z,27.87
2023-05-22T20:50:32.743Z,28.43
2023-05-22T20:52:42.855Z,29.93
2023-05-22T20:54:47.168Z,30.57
2023-05-22T20:56:50.104Z,28.50
2023-05-22T20:58:53.113Z,26.40
2023-05-22T21:01:00.956Z,29.47
2023-05-22T21:03:06.657Z,27.60
2023-05-22T21:05:11.336Z,28.70
2023-05-22T21:07:18.200Z,29.97
2023-05-22T21:09:24.135Z,37.57
2023-05-22T21:11:30.041Z,33.43
2023-05-22T21:13:36.603Z,34.43
2023-05-22T21:15:41.458Z,38.37
2023-05-22T21:17:45.950Z,36.13
2023-05-22T21:19:53.171Z,37.87
2023-05-22T21:21:56.458Z,39.37
2023-05-22T21:23:59.521Z,37.73
2023-05-22T21:26:03.812Z,37.70
2023-05-22T21:28:07.717Z,37.90
2023-05-22T21:30:15.158Z,43.10
2023-05-22T21:32:18.377Z,38.13
2023-05-22T21:34:22.975Z,41.10
2023-05-22T21:36:27.973Z,40.70
2023-05-22T21:38:31.154Z,39.27
2023-05-22T21:40:35.962Z,40.50
2023-05-22T21:42:46.747Z,40.10
2023-05-22T21:44:52.563Z,36.73
2023-05-22T21:47:00.219Z,41.30
2023-05-22T21:49:04.758Z,34.07
2023-05-22T21:51:09.223Z,37.17
2023-05-22T21:53:14.159Z,38.27
2023-05-22T21:55:17.120Z,36.17
2023-05-22T21:57:20.064Z,37.63
2023-05-22T21:59:23.217Z,37.87
2023-05-22T22:01:26.445Z,40.93
2023-05-22T22:03:29.576Z,39.60
2023-05-22T22:05:32.646Z,39.33
2023-05-22T22:07:39.452Z,39.80
2023-05-22T22:09:42.635Z,36.80
2023-05-22T22:11:45.795Z,36.97
2023-05-22T22:13:48.786Z,40.83
2023-05-22T22:15:51.876Z,40.13
2023-05-22T22:18:00.000Z,37.87
2023-05-22T22:20:11.518Z,39.80
2023-05-22T22:22:18.660Z,37.50
2023-05-22T22:24:23.300Z,41.10
2023-05-22T22:26:27.078Z,42.93
2023-05-22T22:28:30.226Z,45.43
2023-05-22T22:30:37.456Z,42.03
2023-05-22T22:32:41.947Z,42.63
2023-05-22T22:34:53.966Z,39.23
2023-05-22T22:36:58.760Z,44.13
2023-05-22T22:39:02.546Z,44.93
2023-05-22T22:41:09.716Z,42.63
2023-05-22T22:43:12.821Z,44.73
2023-05-22T22:45:17.741Z,41.07
2023-05-22T22:47:28.263Z,40.77
2023-05-22T22:49:34.264Z,39.40
2023-05-22T22:51:37.418Z,38.63
2023-05-22T22:53:45.363Z,37.67
2023-05-22T22:55:56.673Z,41.33
2023-05-22T22:58:05.392Z,42.17
2023-05-22T23:00:09.649Z,42.70
2023-05-22T23:02:12.783Z,44.13
2023-05-22T23:04:15.841Z,42.23
2023-05-22T23:06:22.716Z,42.13
2023-05-22T23:08:33.531Z,43.40
2023-05-22T23:10:45.587Z,42.03
2023-05-22T23:12:51.213Z,46.47
2023-05-22T23:14:57.205Z,43.90
2023-05-22T23:17:03.131Z,45.97
2023-05-22T23:19:11.925Z,43.77
2023-05-22T23:21:15.049Z,41.60
2023-05-22T23:23:19.462Z,48.10
2023-05-22T23:25:23.031Z,45.43
2023-05-22T23:27:26.088Z,49.80
2023-05-22T23:29:29.108Z,46.77
2023-05-22T23:31:33.587Z,48.33
2023-05-22T23:33:37.711Z,50.33
2023-05-22T23:35:40.960Z,43.57
2023-05-22T23:37:49.056Z,46.97
2023-05-22T23:39:52.138Z,44.23
2023-05-22T23:41:55.888Z,44.40
2023-05-22T23:44:01.323Z,45.07
2023-05-22T23:46:04.392Z,40.97
2023-05-22T23:48:08.864Z,41.30
2023-05-22T23:50:12.701Z,40.80
2023-05-22T23:52:15.973Z,43.60
2023-05-22T23:54:21.896Z,42.60
2023-05-22T23:56:24.979Z,44.63
2023-05-22T23:58:32.144Z,39.33
